sensor_id;sensor_type;location;lat;lon;timestamp;pressure;altitude;pressure_sealevel;temperature;humidity
63019;BME280;49105;46.046;10.760;2023-03-02T00:07:09;95639.13;;;4.25;66.66
63019;BME280;49105;46.046;10.760;2023-03-02T00:09:42;95639.13;;;4.25;66.65
63019;BME280;49105;46.046;10.760;2023-03-02T00:12:14;95640.97;;;4.25;66.56
63019;BME280;49105;46.046;10.760;2023-03-02T00:14:42;95637.31;;;4.26;66.59
63019;BME280;49105;46.046;10.760;2023-03-02T00:17:14;95641.75;;;4.25;66.63
63019;BME280;49105;46.046;10.760;2023-03-02T00:19:39;95639.69;;;4.27;66.75
63019;BME280;49105;46.046;10.760;2023-03-02T00:22:09;95634.94;;;4.24;66.95
63019;BME280;49105;46.046;10.760;2023-03-02T00:24:37;95650.06;;;4.22;66.73
63019;BME280;49105;46.046;10.760;2023-03-02T00:27:11;95639.84;;;4.20;66.95
63019;BME280;49105;46.046;10.760;2023-03-02T00:29:43;95641.66;;;4.20;67.01
63019;BME280;49105;46.046;10.760;2023-03-02T00:32:15;95647.78;;;4.26;66.71
63019;BME280;49105;46.046;10.760;2023-03-02T00:34:48;95641.50;;;4.27;66.60
63019;BME280;49105;46.046;10.760;2023-03-02T00:37:23;95639.84;;;4.20;66.61
63019;BME280;49105;46.046;10.760;2023-03-02T00:39:56;95631.06;;;4.15;66.79
63019;BME280;49105;46.046;10.760;2023-03-02T00:42:30;95637.31;;;4.14;66.88
63019;BME280;49105;46.046;10.760;2023-03-02T00:45:05;95632.09;;;4.14;66.90
63019;BME280;49105;46.046;10.760;2023-03-02T00:47:40;95627.88;;;4.13;66.96
63019;BME280;49105;46.046;10.760;2023-03-02T00:50:14;95631.19;;;4.20;66.68
63019;BME280;49105;46.046;10.760;2023-03-02T00:52:40;95631.41;;;4.18;66.81
63019;BME280;49105;46.046;10.760;2023-03-02T00:55:05;95625.72;;;4.10;67.15
63019;BME280;49105;46.046;10.760;2023-03-02T00:57:31;95630.50;;;4.13;66.88
63019;BME280;49105;46.046;10.760;2023-03-02T00:59:56;95631.06;;;4.15;66.89
63019;BME280;49105;46.046;10.760;2023-03-02T01:02:31;95628.44;;;4.15;66.97
63019;BME280;49105;46.046;10.760;2023-03-02T01:04:56;95623.69;;;4.12;67.04
63019;BME280;49105;46.046;10.760;2023-03-02T01:07:28;95620.50;;;4.10;66.91
63019;BME280;49105;46.046;10.760;2023-03-02T01:09:59;95610.25;;;4.08;67.08
63019;BME280;49105;46.046;10.760;2023-03-02T01:12:28;95616.75;;;4.06;67.10
63019;BME280;49105;46.046;10.760;2023-03-02T01:15:07;95615.50;;;4.08;67.16
63019;BME280;49105;46.046;10.760;2023-03-02T01:17:39;95609.22;;;4.09;67.16
63019;BME280;49105;46.046;10.760;2023-03-02T01:20:12;95602.94;;;4.10;67.24
63019;BME280;49105;46.046;10.760;2023-03-02T01:22:44;95607.16;;;4.11;67.23
63019;BME280;49105;46.046;10.760;2023-03-02T01:25:11;95602.50;;;4.13;67.20
63019;BME280;49105;46.046;10.760;2023-03-02T01:27:39;95601.25;;;4.16;67.03
63019;BME280;49105;46.046;10.760;2023-03-02T01:30:05;95599.63;;;4.15;67.04
63019;BME280;49105;46.046;10.760;2023-03-02T01:32:40;95603.94;;;4.21;67.11
63019;BME280;49105;46.046;10.760;2023-03-02T01:35:06;95600.75;;;4.19;67.33
63019;BME280;49105;46.046;10.760;2023-03-02T01:37:44;95599.06;;;4.13;66.98
63019;BME280;49105;46.046;10.760;2023-03-02T01:40:13;95600.56;;;4.09;67.04
63019;BME280;49105;46.046;10.760;2023-03-02T01:42:56;95608.63;;;4.07;67.36
63019;BME280;49105;46.046;10.760;2023-03-02T01:45:46;95608.34;;;4.04;67.45
63019;BME280;49105;46.046;10.760;2023-03-02T01:48:14;95608.34;;;4.04;67.37
63019;BME280;49105;46.046;10.760;2023-03-02T01:50:49;95603.31;;;4.02;67.51
63019;BME280;49105;46.046;10.760;2023-03-02T01:53:20;95604.34;;;4.01;67.79
63019;BME280;49105;46.046;10.760;2023-03-02T01:55:47;95606.38;;;3.99;67.79
63019;BME280;49105;46.046;10.760;2023-03-02T01:58:22;95603.22;;;3.97;67.90
63019;BME280;49105;46.046;10.760;2023-03-02T02:00:48;95596.72;;;4.00;67.93
63019;BME280;49105;46.046;10.760;2023-03-02T02:03:23;95597.84;;;4.04;67.80
63019;BME280;49105;46.046;10.760;2023-03-02T02:06:10;95603.53;;;4.12;67.80
63019;BME280;49105;46.046;10.760;2023-03-02T02:08:40;95589.63;;;4.12;67.91
63019;BME280;49105;46.046;10.760;2023-03-02T02:11:05;95595.88;;;4.11;68.12
63019;BME280;49105;46.046;10.760;2023-03-02T02:13:31;95587.31;;;4.15;68.06
63019;BME280;49105;46.046;10.760;2023-03-02T02:15:57;95586.56;;;4.03;67.95
63019;BME280;49105;46.046;10.760;2023-03-02T02:18:25;95590.25;;;3.90;68.23
63019;BME280;49105;46.046;10.760;2023-03-02T02:20:57;95590.25;;;3.90;68.51
63019;BME280;49105;46.046;10.760;2023-03-02T02:26:06;95576.56;;;4.00;67.86
63019;BME280;49105;46.046;10.760;2023-03-02T02:28:59;95572.59;;;3.97;68.15
63019;BME280;49105;46.046;10.760;2023-03-02T02:31:56;95576.22;;;3.96;68.18
63019;BME280;49105;46.046;10.760;2023-03-02T02:34:31;95584.31;;;3.95;68.12
63019;BME280;49105;46.046;10.760;2023-03-02T02:37:06;95580.09;;;3.94;68.33
63019;BME280;49105;46.046;10.760;2023-03-02T02:39:43;95575.56;;;3.89;68.48
63019;BME280;49105;46.046;10.760;2023-03-02T02:42:33;95580.81;;;3.89;68.85
63019;BME280;49105;46.046;10.760;2023-03-02T02:45:02;95580.00;;;3.89;68.75
63019;BME280;49105;46.046;10.760;2023-03-02T02:47:28;95571.38;;;3.88;69.02
63019;BME280;49105;46.046;10.760;2023-03-02T02:49:54;95574.69;;;3.84;69.19
63019;BME280;49105;46.046;10.760;2023-03-02T02:52:29;95570.59;;;3.76;69.59
63019;BME280;49105;46.046;10.760;2023-03-02T02:55:01;95568.75;;;3.77;69.41
63019;BME280;49105;46.046;10.760;2023-03-02T02:57:33;95576.03;;;3.86;69.38
63019;BME280;49105;46.046;10.760;2023-03-02T02:59:59;95570.31;;;3.89;69.17
63019;BME280;49105;46.046;10.760;2023-03-02T03:02:36;95573.53;;;3.91;68.98
63019;BME280;49105;46.046;10.760;2023-03-02T03:05:13;95572.94;;;3.89;68.87
63019;BME280;49105;46.046;10.760;2023-03-02T03:07:42;95570.91;;;3.91;68.61
63019;BME280;49105;46.046;10.760;2023-03-02T03:10:24;95579.56;;;3.92;68.58
63019;BME280;49105;46.046;10.760;2023-03-02T03:12:52;95572.50;;;3.92;68.89
63019;BME280;49105;46.046;10.760;2023-03-02T03:15:18;95579.66;;;3.97;68.69
63019;BME280;49105;46.046;10.760;2023-03-02T03:17:55;95578.84;;;3.96;68.71
63019;BME280;49105;46.046;10.760;2023-03-02T03:20:21;95560.19;;;3.93;68.91
63019;BME280;49105;46.046;10.760;2023-03-02T03:22:53;95568.03;;;3.93;68.57
63019;BME280;49105;46.046;10.760;2023-03-02T03:25:27;95565.44;;;3.93;68.86
63019;BME280;49105;46.046;10.760;2023-03-02T03:27:59;95561.44;;;3.90;68.77
63019;BME280;49105;46.046;10.760;2023-03-02T03:30:24;95567.72;;;3.89;68.92
63019;BME280;49105;46.046;10.760;2023-03-02T03:33:02;95565.19;;;3.94;68.76
63019;BME280;49105;46.046;10.760;2023-03-02T03:35:37;95563.22;;;4.02;69.00
63019;BME280;49105;46.046;10.760;2023-03-02T03:38:12;95556.78;;;3.92;68.56
63019;BME280;49105;46.046;10.760;2023-03-02T03:40:46;95562.38;;;3.84;68.99
63019;BME280;49105;46.046;10.760;2023-03-02T03:43:11;95554.75;;;3.83;68.95
63019;BME280;49105;46.046;10.760;2023-03-02T03:45:45;95545.09;;;3.83;69.02
63019;BME280;49105;46.046;10.760;2023-03-02T03:48:16;95549.63;;;3.88;68.98
63019;BME280;49105;46.046;10.760;2023-03-02T03:50:46;95551.44;;;3.87;68.75
63019;BME280;49105;46.046;10.760;2023-03-02T03:53:11;95557.69;;;3.86;68.92
63019;BME280;49105;46.046;10.760;2023-03-02T03:55:42;95557.59;;;3.81;69.08
63019;BME280;49105;46.046;10.760;2023-03-02T03:58:08;95561.69;;;3.77;69.04
63019;BME280;49105;46.046;10.760;2023-03-02T04:00:34;95566.59;;;3.73;69.49
63019;BME280;49105;46.046;10.760;2023-03-02T04:02:59;95566.16;;;3.77;69.33
63019;BME280;49105;46.046;10.760;2023-03-02T04:05:32;95559.31;;;3.76;69.36
63019;BME280;49105;46.046;10.760;2023-03-02T04:11:19;95562.38;;;3.84;69.33
63019;BME280;49105;46.046;10.760;2023-03-02T04:13:50;95560.31;;;3.86;69.04
63019;BME280;49105;46.046;10.760;2023-03-02T04:16:19;95569.53;;;3.89;69.17
63019;BME280;49105;46.046;10.760;2023-03-02T04:18:57;95566.66;;;3.90;68.96
63019;BME280;49105;46.046;10.760;2023-03-02T04:21:26;95567.00;;;3.94;69.00
63019;BME280;49105;46.046;10.760;2023-03-02T04:23:58;95571.34;;;4.00;68.97
63019;BME280;49105;46.046;10.760;2023-03-02T04:26:23;95574.16;;;3.98;68.88
63019;BME280;49105;46.046;10.760;2023-03-02T04:28:53;95575.09;;;3.92;68.90
63019;BME280;49105;46.046;10.760;2023-03-02T04:31:18;95571.03;;;3.85;69.07
63019;BME280;49105;46.046;10.760;2023-03-02T04:33:44;95579.81;;;3.79;69.11
63019;BME280;49105;46.046;10.760;2023-03-02T04:36:12;95577.41;;;3.77;69.26
63019;BME280;49105;46.046;10.760;2023-03-02T04:38:47;95580.38;;;3.81;69.18
63019;BME280;49105;46.046;10.760;2023-03-02T04:41:13;95576.25;;;3.85;69.41
63019;BME280;49105;46.046;10.760;2023-03-02T04:43:45;95575.56;;;3.89;68.81
63019;BME280;49105;46.046;10.760;2023-03-02T04:46:23;95577.72;;;3.92;69.06
63019;BME280;49105;46.046;10.760;2023-03-02T04:48:52;95576.16;;;3.91;68.70
63019;BME280;49105;46.046;10.760;2023-03-02T04:51:20;95582.88;;;3.87;68.81
63019;BME280;49105;46.046;10.760;2023-03-02T04:54:02;95578.53;;;3.81;69.18
63019;BME280;49105;46.046;10.760;2023-03-02T04:56:35;95580.59;;;3.79;69.34
63019;BME280;49105;46.046;10.760;2023-03-02T04:59:01;95577.75;;;3.81;69.19
63019;BME280;49105;46.046;10.760;2023-03-02T05:01:35;95577.41;;;3.77;69.60
63019;BME280;49105;46.046;10.760;2023-03-02T05:04:01;95581.84;;;3.77;69.24
63019;BME280;49105;46.046;10.760;2023-03-02T05:06:29;95585.59;;;3.81;69.58
63019;BME280;49105;46.046;10.760;2023-03-02T05:08:58;95571.59;;;3.87;69.23
63019;BME280;49105;46.046;10.760;2023-03-02T05:11:33;95575.22;;;3.86;69.28
63019;BME280;49105;46.046;10.760;2023-03-02T05:14:02;95572.19;;;3.77;69.33
63019;BME280;49105;46.046;10.760;2023-03-02T05:16:36;95574.00;;;3.77;69.52
63019;BME280;49105;46.046;10.760;2023-03-02T05:19:07;95577.41;;;3.77;69.42
63019;BME280;49105;46.046;10.760;2023-03-02T05:21:52;95579.22;;;3.77;69.43
63019;BME280;49105;46.046;10.760;2023-03-02T05:24:17;95578.19;;;3.78;69.40
63019;BME280;49105;46.046;10.760;2023-03-02T05:26:52;95586.28;;;3.76;69.41
63019;BME280;49105;46.046;10.760;2023-03-02T05:29:24;95580.47;;;3.74;69.48
63019;BME280;49105;46.046;10.760;2023-03-02T05:31:49;95583.69;;;3.76;69.45
63019;BME280;49105;46.046;10.760;2023-03-02T05:34:23;95589.72;;;3.77;69.25
63019;BME280;49105;46.046;10.760;2023-03-02T05:36:55;95582.09;;;3.75;69.30
63019;BME280;49105;46.046;10.760;2023-03-02T05:39:22;95580.81;;;3.78;69.38
63019;BME280;49105;46.046;10.760;2023-03-02T05:41:47;95579.94;;;3.72;69.22
63019;BME280;49105;46.046;10.760;2023-03-02T05:47:44;95576.88;;;3.63;69.74
63019;BME280;49105;46.046;10.760;2023-03-02T05:50:15;95580.28;;;3.64;69.64
63019;BME280;49105;46.046;10.760;2023-03-02T05:52:41;95579.25;;;3.65;69.69
63019;BME280;49105;46.046;10.760;2023-03-02T05:55:14;95578.22;;;3.66;69.27
63019;BME280;49105;46.046;10.760;2023-03-02T05:57:46;95581.97;;;3.70;69.80
63019;BME280;49105;46.046;10.760;2023-03-02T06:00:17;95596.09;;;3.69;69.71
63019;BME280;49105;46.046;10.760;2023-03-02T06:02:49;95587.69;;;3.67;69.62
63019;BME280;49105;46.046;10.760;2023-03-02T06:05:20;95602.34;;;3.68;69.61
63019;BME280;49105;46.046;10.760;2023-03-02T06:07:52;95602.00;;;3.64;69.71
63019;BME280;49105;46.046;10.760;2023-03-02T06:10:21;95602.25;;;3.63;69.85
63019;BME280;49105;46.046;10.760;2023-03-02T06:12:47;95600.09;;;3.60;69.89
63019;BME280;49105;46.046;10.760;2023-03-02T06:15:18;95601.13;;;3.59;70.10
63019;BME280;49105;46.046;10.760;2023-03-02T06:17:50;95596.56;;;3.54;70.05
63019;BME280;49105;46.046;10.760;2023-03-02T06:20:18;95599.84;;;3.49;70.13
63019;BME280;49105;46.046;10.760;2023-03-02T06:22:48;95599.84;;;3.49;70.22
63019;BME280;49105;46.046;10.760;2023-03-02T06:25:20;95596.00;;;3.52;70.25
63019;BME280;49105;46.046;10.760;2023-03-02T06:27:54;95595.09;;;3.58;70.28
63019;BME280;49105;46.046;10.760;2023-03-02T06:30:29;95604.06;;;3.62;70.01
63019;BME280;49105;46.046;10.760;2023-03-02T06:33:03;95605.88;;;3.62;70.02
63019;BME280;49105;46.046;10.760;2023-03-02T06:35:35;95610.66;;;3.65;70.11
63019;BME280;49105;46.046;10.760;2023-03-02T06:38:09;95615.00;;;3.71;69.83
63019;BME280;49105;46.046;10.760;2023-03-02T06:40:35;95608.97;;;3.70;70.11
63019;BME280;49105;46.046;10.760;2023-03-02T06:43:06;95609.28;;;3.74;70.01
63019;BME280;49105;46.046;10.760;2023-03-02T06:45:38;95615.09;;;3.76;70.14
63019;BME280;49105;46.046;10.760;2023-03-02T06:48:16;95620.31;;;3.76;70.17
63019;BME280;49105;46.046;10.760;2023-03-02T06:50:42;95618.94;;;3.73;70.38
63019;BME280;49105;46.046;10.760;2023-03-02T06:53:10;95617.13;;;3.74;70.12
63019;BME280;49105;46.046;10.760;2023-03-02T06:55:35;95618.59;;;3.70;70.24
63019;BME280;49105;46.046;10.760;2023-03-02T06:58:01;95614.84;;;3.66;70.50
63019;BME280;49105;46.046;10.760;2023-03-02T07:00:32;95613.06;;;3.66;70.52
63019;BME280;49105;46.046;10.760;2023-03-02T07:03:04;95623.06;;;3.69;70.51
63019;BME280;49105;46.046;10.760;2023-03-02T07:05:29;95622.84;;;3.83;70.50
63019;BME280;49105;46.046;10.760;2023-03-02T07:07:59;95618.03;;;3.91;70.22
63019;BME280;49105;46.046;10.760;2023-03-02T07:10:36;95620.16;;;3.94;70.02
63019;BME280;49105;46.046;10.760;2023-03-02T07:13:08;95622.91;;;4.00;70.31
63019;BME280;49105;46.046;10.760;2023-03-02T07:15:34;95616.19;;;4.04;70.34
63019;BME280;49105;46.046;10.760;2023-03-02T07:17:59;95620.38;;;4.05;70.34
63019;BME280;49105;46.046;10.760;2023-03-02T07:20:31;95629.84;;;4.06;70.28
63019;BME280;49105;46.046;10.760;2023-03-02T07:23:03;95628.34;;;4.10;70.40
63019;BME280;49105;46.046;10.760;2023-03-02T07:25:38;95639.50;;;4.17;70.09
63019;BME280;49105;46.046;10.760;2023-03-02T07:28:12;95634.69;;;4.26;70.52
63019;BME280;49105;46.046;10.760;2023-03-02T07:30:39;95636.50;;;4.25;70.23
63019;BME280;49105;46.046;10.760;2023-03-02T07:33:23;95636.06;;;4.28;70.13
63019;BME280;49105;46.046;10.760;2023-03-02T07:35:58;95639.47;;;4.29;70.31
63019;BME280;49105;46.046;10.760;2023-03-02T07:38:36;95638.97;;;4.32;70.49
63019;BME280;49105;46.046;10.760;2023-03-02T07:41:09;95638.31;;;4.36;70.08
63019;BME280;49105;46.046;10.760;2023-03-02T07:43:44;95638.94;;;4.43;70.05
63019;BME280;49105;46.046;10.760;2023-03-02T07:46:10;95636.91;;;4.45;70.24
63019;BME280;49105;46.046;10.760;2023-03-02T07:48:38;95644.84;;;4.51;69.93
63019;BME280;49105;46.046;10.760;2023-03-02T07:51:05;95641.31;;;4.57;70.03
63019;BME280;49105;46.046;10.760;2023-03-02T07:53:37;95635.81;;;4.58;70.00
63019;BME280;49105;46.046;10.760;2023-03-02T07:56:13;95642.19;;;4.62;69.91
63019;BME280;49105;46.046;10.760;2023-03-02T07:58:39;95646.63;;;4.62;70.14
63019;BME280;49105;46.046;10.760;2023-03-02T08:01:10;95633.88;;;4.65;69.91
63019;BME280;49105;46.046;10.760;2023-03-02T08:03:36;95638.72;;;4.73;70.35
63019;BME280;49105;46.046;10.760;2023-03-02T08:06:10;95637.31;;;4.83;69.92
63019;BME280;49105;46.046;10.760;2023-03-02T08:08:36;95640.25;;;4.86;70.18
63019;BME280;49105;46.046;10.760;2023-03-02T08:11:14;95640.09;;;4.93;69.84
63019;BME280;49105;46.046;10.760;2023-03-02T08:13:44;95640.03;;;5.05;70.02
63019;BME280;49105;46.046;10.760;2023-03-02T08:16:19;95636.69;;;5.09;69.92
63019;BME280;49105;46.046;10.760;2023-03-02T08:18:49;95634.41;;;5.13;69.41
63019;BME280;49105;46.046;10.760;2023-03-02T08:21:22;95631.44;;;5.09;69.67
63019;BME280;49105;46.046;10.760;2023-03-02T08:23:54;95638.84;;;5.12;69.84
63019;BME280;49105;46.046;10.760;2023-03-02T08:26:31;95642.13;;;5.19;69.57
63019;BME280;49105;46.046;10.760;2023-03-02T08:29:04;95633.53;;;5.24;69.76
63019;BME280;49105;46.046;10.760;2023-03-02T08:31:39;95641.34;;;5.36;69.39
63019;BME280;49105;46.046;10.760;2023-03-02T08:34:10;95637.53;;;5.43;69.33
63019;BME280;49105;46.046;10.760;2023-03-02T08:36:38;95629.72;;;5.48;69.33
63019;BME280;49105;46.046;10.760;2023-03-02T08:39:08;95627.94;;;5.54;69.30
63019;BME280;49105;46.046;10.760;2023-03-02T08:41:37;95609.94;;;5.63;69.09
63019;BME280;49105;46.046;10.760;2023-03-02T08:44:11;95620.28;;;5.69;68.99
63019;BME280;49105;46.046;10.760;2023-03-02T08:46:36;95624.28;;;5.72;68.82
63019;BME280;49105;46.046;10.760;2023-03-02T08:49:02;95617.19;;;5.72;68.70
63019;BME280;49105;46.046;10.760;2023-03-02T08:51:27;95619.81;;;5.72;69.08
63019;BME280;49105;46.046;10.760;2023-03-02T08:54:02;95614.88;;;5.76;69.06
63019;BME280;49105;46.046;10.760;2023-03-02T08:59:55;95622.03;;;5.81;68.83
63019;BME280;49105;46.046;10.760;2023-03-02T09:02:30;95622.03;;;5.81;68.62
63019;BME280;49105;46.046;10.760;2023-03-02T09:05:04;95622.25;;;5.79;68.74
63019;BME280;49105;46.046;10.760;2023-03-02T09:07:30;95625.50;;;5.86;68.39
63019;BME280;49105;46.046;10.760;2023-03-02T09:10:04;95627.09;;;5.87;68.23
63019;BME280;49105;46.046;10.760;2023-03-02T09:12:30;95626.88;;;5.89;68.59
63019;BME280;49105;46.046;10.760;2023-03-02T09:14:59;95638.25;;;5.94;68.42
63019;BME280;49105;46.046;10.760;2023-03-02T09:17:26;95626.63;;;5.90;68.18
63019;BME280;49105;46.046;10.760;2023-03-02T09:19:57;95633.38;;;5.86;68.71
63019;BME280;49105;46.046;10.760;2023-03-02T09:22:30;95628.63;;;5.83;68.91
63019;BME280;49105;46.046;10.760;2023-03-02T09:25:03;95631.25;;;5.83;68.69
63019;BME280;49105;46.046;10.760;2023-03-02T09:27:35;95636.28;;;5.85;69.07
63019;BME280;49105;46.046;10.760;2023-03-02T09:30:00;95640.47;;;5.86;69.00
63019;BME280;49105;46.046;10.760;2023-03-02T09:32:29;95640.22;;;5.87;68.67
63019;BME280;49105;46.046;10.760;2023-03-02T09:35:04;95641.53;;;5.85;68.76
63019;BME280;49105;46.046;10.760;2023-03-02T09:37:38;95646.25;;;5.88;68.63
63019;BME280;49105;46.046;10.760;2023-03-02T09:40:08;95648.91;;;5.88;68.94
63019;BME280;49105;46.046;10.760;2023-03-02T09:54:07;95656.38;;;5.96;68.78
63019;BME280;49105;46.046;10.760;2023-03-02T09:56:46;95649.88;;;5.99;68.71
63019;BME280;49105;46.046;10.760;2023-03-02T09:59:38;95652.56;;;6.04;68.71
63019;BME280;49105;46.046;10.760;2023-03-02T10:02:31;95659.97;;;6.07;68.81
63019;BME280;49105;46.046;10.760;2023-03-02T10:05:19;95651.91;;;6.13;68.93
63019;BME280;49105;46.046;10.760;2023-03-02T10:07:46;95651.19;;;6.18;68.83
63019;BME280;49105;46.046;10.760;2023-03-02T10:10:42;95649.41;;;6.24;68.95
63019;BME280;49105;46.046;10.760;2023-03-02T10:13:25;95649.75;;;6.32;68.80
63019;BME280;49105;46.046;10.760;2023-03-02T10:18:42;95640.66;;;6.40;68.21
63019;BME280;49105;46.046;10.760;2023-03-02T10:21:24;95641.75;;;6.44;68.65
63019;BME280;49105;46.046;10.760;2023-03-02T10:26:52;95635.34;;;6.62;68.77
63019;BME280;49105;46.046;10.760;2023-03-02T10:34:35;95636.66;;;6.86;68.17
63019;BME280;49105;46.046;10.760;2023-03-02T10:37:23;95626.22;;;6.91;68.15
63019;BME280;49105;46.046;10.760;2023-03-02T10:40:01;95615.72;;;6.96;68.24
63019;BME280;49105;46.046;10.760;2023-03-02T10:42:36;95618.13;;;7.03;67.91
63019;BME280;49105;46.046;10.760;2023-03-02T10:45:26;95618.44;;;7.07;68.15
63019;BME280;49105;46.046;10.760;2023-03-02T10:48:03;95616.88;;;7.11;68.13
63019;BME280;49105;46.046;10.760;2023-03-02T10:50:36;95613.56;;;7.20;67.80
63019;BME280;49105;46.046;10.760;2023-03-02T10:53:15;95608.84;;;7.28;67.96
63019;BME280;49105;46.046;10.760;2023-03-02T10:55:54;95608.66;;;7.34;67.74
63019;BME280;49105;46.046;10.760;2023-03-02T10:58:32;95612.88;;;7.35;67.54
63019;BME280;49105;46.046;10.760;2023-03-02T11:01:16;95608.66;;;7.34;67.65
63019;BME280;49105;46.046;10.760;2023-03-02T11:03:52;95603.91;;;7.36;67.53
63019;BME280;49105;46.046;10.760;2023-03-02T11:06:19;95607.13;;;7.43;67.31
63019;BME280;49105;46.046;10.760;2023-03-02T11:09:06;95603.50;;;7.50;67.41
63019;BME280;49105;46.046;10.760;2023-03-02T11:11:32;95604.03;;;7.52;67.49
63019;BME280;49105;46.046;10.760;2023-03-02T11:14:15;95600.88;;;7.50;67.28
63019;BME280;49105;46.046;10.760;2023-03-02T11:16:44;95598.47;;;7.48;67.32
63019;BME280;49105;46.046;10.760;2023-03-02T11:19:31;95588.72;;;7.49;67.32
63019;BME280;49105;46.046;10.760;2023-03-02T11:22:22;95597.19;;;7.51;67.32
63019;BME280;49105;46.046;10.760;2023-03-02T11:24:55;95590.88;;;7.57;67.23
63019;BME280;49105;46.046;10.760;2023-03-02T11:27:34;95585.97;;;7.70;67.17
63019;BME280;49105;46.046;10.760;2023-03-02T11:30:16;95581.00;;;7.74;66.85
63019;BME280;49105;46.046;10.760;2023-03-02T11:35:45;95578.13;;;7.86;67.20
63019;BME280;49105;46.046;10.760;2023-03-02T11:38:47;95575.56;;;7.96;66.60
63019;BME280;49105;46.046;10.760;2023-03-02T11:43:45;95566.38;;;8.09;66.71
63019;BME280;49105;46.046;10.760;2023-03-02T11:46:24;95559.28;;;8.14;66.34
63019;BME280;49105;46.046;10.760;2023-03-02T11:48:56;95560.34;;;8.18;65.71
63019;BME280;49105;46.046;10.760;2023-03-02T11:51:34;95548.22;;;8.17;65.98
63019;BME280;49105;46.046;10.760;2023-03-02T11:54:26;95549.28;;;8.16;66.04
63019;BME280;49105;46.046;10.760;2023-03-02T11:56:53;95548.50;;;8.21;65.81
63019;BME280;49105;46.046;10.760;2023-03-02T11:59:20;95538.25;;;8.30;66.10
63019;BME280;49105;46.046;10.760;2023-03-02T12:01:53;95545.91;;;8.36;65.67
63019;BME280;49105;46.046;10.760;2023-03-02T12:04:35;95534.34;;;8.37;66.11
63019;BME280;49105;46.046;10.760;2023-03-02T12:07:20;95532.78;;;8.41;65.89
63019;BME280;49105;46.046;10.760;2023-03-02T12:12:38;95523.03;;;8.57;65.70
63019;BME280;49105;46.046;10.760;2023-03-02T12:15:33;95529.63;;;8.60;65.08
63019;BME280;49105;46.046;10.760;2023-03-02T12:18:42;95517.25;;;8.65;65.04
63019;BME280;49105;46.046;10.760;2023-03-02T12:21:23;95516.97;;;8.72;65.85
63019;BME280;49105;46.046;10.760;2023-03-02T12:26:26;95506.19;;;8.89;65.11
63019;BME280;49105;46.046;10.760;2023-03-02T12:37:25;95497.47;;;8.93;64.49
63019;BME280;49105;46.046;10.760;2023-03-02T12:51:19;95491.09;;;9.00;64.19
63019;BME280;49105;46.046;10.760;2023-03-02T12:54:00;95486.34;;;8.97;64.29
63019;BME280;49105;46.046;10.760;2023-03-02T12:56:26;95477.91;;;8.94;63.82
63019;BME280;49105;46.046;10.760;2023-03-02T12:59:01;95487.97;;;8.98;64.19
63019;BME280;49105;46.046;10.760;2023-03-02T13:01:29;95483.47;;;8.98;63.98
63019;BME280;49105;46.046;10.760;2023-03-02T13:04:01;95470.78;;;9.00;63.95
63019;BME280;49105;46.046;10.760;2023-03-02T13:06:36;95474.72;;;9.08;64.08
63019;BME280;49105;46.046;10.760;2023-03-02T13:09:13;95477.91;;;9.05;63.54
63019;BME280;49105;46.046;10.760;2023-03-02T13:11:40;95473.16;;;9.02;63.40
63019;BME280;49105;46.046;10.760;2023-03-02T13:14:24;95478.97;;;8.99;63.12
63019;BME280;49105;46.046;10.760;2023-03-02T13:17:00;95481.91;;;8.97;63.01
63019;BME280;49105;46.046;10.760;2023-03-02T13:19:29;95474.22;;;8.95;63.39
63019;BME280;49105;46.046;10.760;2023-03-02T13:22:02;95488.75;;;8.93;63.24
63019;BME280;49105;46.046;10.760;2023-03-02T13:24:43;95476.34;;;8.93;62.69
63019;BME280;49105;46.046;10.760;2023-03-02T13:27:20;95472.13;;;8.98;62.66
63019;BME280;49105;46.046;10.760;2023-03-02T13:30:07;95471.56;;;9.01;62.93
63019;BME280;49105;46.046;10.760;2023-03-02T13:32:35;95471.03;;;9.09;62.15
63019;BME280;49105;46.046;10.760;2023-03-02T13:35:17;95466.81;;;9.18;62.44
63019;BME280;49105;46.046;10.760;2023-03-02T13:37:57;95472.06;;;9.28;62.58
63019;BME280;49105;46.046;10.760;2023-03-02T13:40:36;95467.81;;;9.37;61.88
63019;BME280;49105;46.046;10.760;2023-03-02T13:48:59;95455.09;;;9.55;61.17
63019;BME280;49105;46.046;10.760;2023-03-02T13:51:46;95457.44;;;9.56;61.72
63019;BME280;49105;46.046;10.760;2023-03-02T13:54:21;95457.97;;;9.58;60.98
63019;BME280;49105;46.046;10.760;2023-03-02T13:56:50;95459.81;;;9.63;60.79
63019;BME280;49105;46.046;10.760;2023-03-02T13:59:23;95454.50;;;9.68;61.23
63019;BME280;49105;46.046;10.760;2023-03-02T14:01:55;95457.91;;;9.74;61.21
63019;BME280;49105;46.046;10.760;2023-03-02T14:04:29;95454.19;;;9.75;61.09
63019;BME280;49105;46.046;10.760;2023-03-02T14:07:03;95451.28;;;9.81;61.15
63019;BME280;49105;46.046;10.760;2023-03-02T14:09:29;95454.97;;;9.80;60.20
63019;BME280;49105;46.046;10.760;2023-03-02T14:12:04;95451.28;;;9.76;59.95
63019;BME280;49105;46.046;10.760;2023-03-02T14:14:34;95447.34;;;9.74;59.82
63019;BME280;49105;46.046;10.760;2023-03-02T14:17:13;95446.03;;;9.71;60.24
63019;BME280;49105;46.046;10.760;2023-03-02T14:19:48;95449.97;;;9.74;60.06
63019;BME280;49105;46.046;10.760;2023-03-02T14:22:20;95448.13;;;9.79;59.58
63019;BME280;49105;46.046;10.760;2023-03-02T14:24:46;95448.63;;;9.81;60.13
63019;BME280;49105;46.046;10.760;2023-03-02T14:27:23;95445.69;;;9.83;59.76
63019;BME280;49105;46.046;10.760;2023-03-02T14:29:51;95444.66;;;9.79;58.79
63019;BME280;49105;46.046;10.760;2023-03-02T14:32:24;95439.38;;;9.79;58.53
63019;BME280;49105;46.046;10.760;2023-03-02T14:34:55;95448.13;;;9.79;58.96
63019;BME280;49105;46.046;10.760;2023-03-02T14:37:24;95444.66;;;9.79;58.57
63019;BME280;49105;46.046;10.760;2023-03-02T14:39:54;95439.16;;;9.75;58.45
63019;BME280;49105;46.046;10.760;2023-03-02T14:42:27;95444.97;;;9.72;57.67
63019;BME280;49105;46.046;10.760;2023-03-02T14:44:58;95439.97;;;9.65;57.68
63019;BME280;49105;46.046;10.760;2023-03-02T14:47:33;95438.94;;;9.61;56.94